Time;durP1;ratioP1;P1;durP2;ratioP2;P2;SDS_P1;SDS_P2;PMS_P1;PMS_P2;Temp;Humidity;BMP_temperature;BMP_pressure;BME280_temperature;BME280_humidity;BME280_pressure;Samples;Min_cycle;Max_cycle;Signal;HPM_P1;HPM_P2
2023/05/27 00:00:47;;;;;;;12.70;6.20;;;;;;;;;;4997235;28;20037;-81
2023/05/27 00:03:13;;;;;;;14.95;6.70;;;;;;;;;;4996438;28;20027;-83
2023/05/27 00:05:38;;;;;;;11.68;6.40;;;;;;;;;;4993870;28;20035;-84
2023/05/27 00:08:04;;;;;;;12.85;6.30;;;;;;;;;;5000667;28;20033;-82
2023/05/27 00:10:29;;;;;;;11.75;6.85;;;;;;;;;;4992063;28;20038;-84
2023/05/27 00:12:54;;;;;;;9.70;6.30;;;;;;;;;;5000871;28;20026;-84
2023/05/27 00:15:20;;;;;;;11.82;6.68;;;;;;;;;;4993147;28;20025;-83
2023/05/27 00:17:45;;;;;;;11.80;6.82;;;;;;;;;;5000306;28;20014;-85
2023/05/27 00:20:12;;;;;;;11.75;6.80;;;;;;;;;;5001424;28;20027;-83
2023/05/27 00:22:37;;;;;;;11.77;6.50;;;;;;;;;;4993660;28;20039;-83
2023/05/27 00:25:03;;;;;;;13.18;7.47;;;;;;;;;;5003144;28;20049;-83
2023/05/27 00:27:28;;;;;;;12.85;6.70;;;;;;;;;;4996958;28;20039;-85
2023/05/27 00:29:54;;;;;;;10.48;6.50;;;;;;;;;;4992753;28;20034;-84
2023/05/27 00:32:19;;;;;;;10.15;6.72;;;;;;;;;;5003651;28;20035;-83
2023/05/27 00:34:45;;;;;;;12.18;6.97;;;;;;;;;;4995085;28;20038;-83
2023/05/27 00:37:10;;;;;;;16.13;7.43;;;;;;;;;;4984010;28;20034;-83
2023/05/27 00:39:35;;;;;;;10.77;7.20;;;;;;;;;;4987344;28;20441;-83
2023/05/27 00:42:01;;;;;;;15.10;7.38;;;;;;;;;;5001472;28;20041;-82
2023/05/27 00:44:27;;;;;;;9.90;6.90;;;;;;;;;;4993545;28;20146;-83
2023/05/27 00:46:53;;;;;;;15.02;7.70;;;;;;;;;;5002710;28;20106;-84
2023/05/27 00:49:18;;;;;;;16.95;7.85;;;;;;;;;;5005699;28;20045;-83
2023/05/27 00:51:44;;;;;;;16.05;7.57;;;;;;;;;;5001469;28;20163;-84
2023/05/27 00:54:10;;;;;;;10.82;7.57;;;;;;;;;;5000745;28;20101;-82
2023/05/27 00:56:36;;;;;;;12.80;7.60;;;;;;;;;;5002638;28;20026;-84
2023/05/27 00:59:02;;;;;;;15.60;7.68;;;;;;;;;;4998480;28;20058;-82
2023/05/27 01:01:28;;;;;;;14.30;7.30;;;;;;;;;;4996390;28;20046;-84
2023/05/27 01:03:55;;;;;;;14.68;7.55;;;;;;;;;;5004458;28;20680;-85
2023/05/27 01:06:39;;;;;;;12.30;7.60;;;;;;;;;;4997704;28;20100;-85
2023/05/27 01:09:13;;;;;;;13.05;7.60;;;;;;;;;;5014474;28;20033;-84
2023/05/27 01:11:44;;;;;;;15.73;7.47;;;;;;;;;;4996902;28;20023;-86
2023/05/27 01:14:11;;;;;;;17.35;8.48;;;;;;;;;;4995362;28;20023;-83
2023/05/27 01:16:43;;;;;;;13.98;8.38;;;;;;;;;;5002979;28;20043;-83
2023/05/27 01:19:14;;;;;;;19.90;7.32;;;;;;;;;;5005004;28;20026;-85
2023/05/27 01:21:44;;;;;;;15.57;8.02;;;;;;;;;;5005021;28;20053;-84
2023/05/27 01:24:10;;;;;;;17.27;9.18;;;;;;;;;;4999407;28;20477;-83
2023/05/27 01:26:36;;;;;;;18.42;8.63;;;;;;;;;;4995337;28;20046;-81
2023/05/27 01:29:02;;;;;;;18.27;8.48;;;;;;;;;;5004122;28;20049;-83
2023/05/27 01:31:35;;;;;;;12.18;8.77;;;;;;;;;;5004747;28;20038;-84
2023/05/27 01:34:08;;;;;;;16.83;9.25;;;;;;;;;;5005263;28;20028;-84
2023/05/27 01:36:46;;;;;;;19.17;8.55;;;;;;;;;;5003227;28;20033;-83
2023/05/27 01:39:12;;;;;;;12.70;7.75;;;;;;;;;;4996249;28;20037;-84
2023/05/27 01:41:40;;;;;;;15.18;8.63;;;;;;;;;;4996961;28;20034;-84
2023/05/27 01:44:06;;;;;;;14.80;8.75;;;;;;;;;;4999543;28;20039;-82
2023/05/27 01:46:31;;;;;;;12.65;7.93;;;;;;;;;;4992721;28;20061;-83
2023/05/27 01:48:56;;;;;;;13.65;8.75;;;;;;;;;;5003690;28;20617;-83
2023/05/27 01:51:22;;;;;;;14.63;8.95;;;;;;;;;;4988551;28;20046;-83
2023/05/27 01:53:47;;;;;;;15.93;9.13;;;;;;;;;;4995791;28;20401;-83
2023/05/27 01:56:12;;;;;;;11.90;8.20;;;;;;;;;;4991581;28;20050;-84
2023/05/27 01:58:38;;;;;;;13.52;8.23;;;;;;;;;;5003869;28;20034;-84
2023/05/27 02:01:03;;;;;;;17.33;8.40;;;;;;;;;;5004900;28;20077;-83
2023/05/27 02:03:28;;;;;;;11.85;8.00;;;;;;;;;;5003939;28;20472;-83
2023/05/27 02:05:55;;;;;;;14.68;8.38;;;;;;;;;;5007454;28;20104;-83
2023/05/27 02:08:20;;;;;;;13.65;8.45;;;;;;;;;;5004452;28;20026;-83
2023/05/27 02:10:45;;;;;;;13.80;8.25;;;;;;;;;;4998610;28;20033;-83
2023/05/27 02:13:11;;;;;;;20.48;8.38;;;;;;;;;;4990396;28;20114;-82
2023/05/27 02:15:36;;;;;;;15.27;8.65;;;;;;;;;;5002974;28;20441;-83
2023/05/27 02:18:01;;;;;;;12.32;8.48;;;;;;;;;;4998805;28;20029;-82
2023/05/27 02:20:27;;;;;;;14.35;7.88;;;;;;;;;;4992141;28;20310;-84
2023/05/27 02:22:52;;;;;;;14.75;8.70;;;;;;;;;;5001384;28;20106;-84
2023/05/27 02:25:18;;;;;;;13.70;8.43;;;;;;;;;;4993375;28;20031;-84
2023/05/27 02:27:47;;;;;;;18.70;9.10;;;;;;;;;;4991272;28;20034;-84
2023/05/27 02:30:13;;;;;;;13.15;9.10;;;;;;;;;;4997202;28;20018;-83
2023/05/27 02:32:38;;;;;;;14.10;8.57;;;;;;;;;;4985816;28;20019;-83
2023/05/27 02:35:04;;;;;;;21.20;9.50;;;;;;;;;;4998340;28;20054;-84
2023/05/27 02:37:29;;;;;;;15.27;8.73;;;;;;;;;;4984991;28;20034;-82
2023/05/27 02:39:56;;;;;;;13.68;9.10;;;;;;;;;;4984800;28;20031;-83
2023/05/27 02:42:21;;;;;;;16.50;8.73;;;;;;;;;;4982681;28;20496;-82
2023/05/27 02:44:46;;;;;;;13.80;8.15;;;;;;;;;;4996811;28;20038;-81
2023/05/27 02:47:12;;;;;;;17.92;8.90;;;;;;;;;;4999554;28;20065;-82
2023/05/27 02:49:37;;;;;;;18.48;9.02;;;;;;;;;;5001297;28;20038;-82
2023/05/27 02:52:03;;;;;;;14.40;8.95;;;;;;;;;;4996953;28;20035;-83
2023/05/27 02:54:28;;;;;;;21.73;9.75;;;;;;;;;;4998184;28;20034;-83
2023/05/27 02:56:53;;;;;;;14.65;9.20;;;;;;;;;;4994917;28;20026;-83
2023/05/27 02:59:19;;;;;;;16.08;9.35;;;;;;;;;;5001658;28;20066;-84
2023/05/27 03:01:44;;;;;;;15.43;9.43;;;;;;;;;;5002468;28;20042;-85
2023/05/27 03:04:10;;;;;;;19.45;9.50;;;;;;;;;;4999180;28;20035;-82
2023/05/27 03:06:35;;;;;;;14.95;8.88;;;;;;;;;;4998378;28;20472;-84
2023/05/27 03:09:02;;;;;;;15.07;9.52;;;;;;;;;;5002869;28;20030;-84
2023/05/27 03:11:27;;;;;;;11.73;8.90;;;;;;;;;;4998423;28;20100;-83
2023/05/27 03:13:53;;;;;;;18.98;9.20;;;;;;;;;;5003882;28;20046;-83
2023/05/27 03:16:19;;;;;;;16.05;9.75;;;;;;;;;;5002905;28;20038;-83
2023/05/27 03:18:45;;;;;;;16.40;10.18;;;;;;;;;;5001407;28;20030;-84
2023/05/27 03:21:10;;;;;;;15.90;9.25;;;;;;;;;;4995705;28;20022;-83
2023/05/27 03:23:36;;;;;;;16.25;8.90;;;;;;;;;;5001016;28;20076;-84
2023/05/27 03:26:01;;;;;;;17.75;8.98;;;;;;;;;;4996325;28;20023;-83
2023/05/27 03:28:26;;;;;;;16.13;9.35;;;;;;;;;;4998636;28;20066;-81
2023/05/27 03:30:55;;;;;;;14.38;8.23;;;;;;;;;;4997146;28;20050;-83
2023/05/27 03:33:22;;;;;;;16.15;9.82;;;;;;;;;;4988337;28;20069;-82
2023/05/27 03:35:48;;;;;;;17.27;8.40;;;;;;;;;;4996871;28;20054;-83
2023/05/27 03:38:13;;;;;;;19.05;9.57;;;;;;;;;;5000665;28;20034;-80
2023/05/27 03:40:39;;;;;;;14.10;9.25;;;;;;;;;;5000131;28;20050;-83
2023/05/27 03:43:04;;;;;;;19.42;8.90;;;;;;;;;;5000741;28;20081;-82
2023/05/27 03:45:30;;;;;;;18.58;9.80;;;;;;;;;;4999231;28;20496;-83
2023/05/27 03:47:55;;;;;;;18.80;9.43;;;;;;;;;;4999885;28;20014;-85
2023/05/27 03:50:20;;;;;;;14.50;9.23;;;;;;;;;;5001176;28;20042;-82
2023/05/27 03:52:46;;;;;;;14.68;8.48;;;;;;;;;;4993985;28;20229;-85
2023/05/27 03:55:11;;;;;;;14.95;8.90;;;;;;;;;;5000844;28;20034;-84
2023/05/27 03:57:36;;;;;;;17.80;8.95;;;;;;;;;;4999337;28;20039;-82
2023/05/27 04:00:07;;;;;;;17.70;10.13;;;;;;;;;;5005397;28;20106;-82
2023/05/27 04:02:32;;;;;;;14.48;8.82;;;;;;;;;;5007233;28;20617;-81
2023/05/27 04:04:59;;;;;;;13.68;8.27;;;;;;;;;;5002773;28;20031;-81
2023/05/27 04:07:26;;;;;;;15.32;10.02;;;;;;;;;;5005216;28;20034;-85
2023/05/27 04:09:52;;;;;;;14.82;8.50;;;;;;;;;;5001538;28;20039;-82
2023/05/27 04:12:17;;;;;;;17.00;9.68;;;;;;;;;;5003431;28;20037;-82
2023/05/27 04:14:42;;;;;;;14.45;8.38;;;;;;;;;;5007141;28;20041;-82
2023/05/27 04:17:08;;;;;;;15.75;8.23;;;;;;;;;;5005785;28;20564;-84
2023/05/27 04:19:34;;;;;;;14.35;8.50;;;;;;;;;;5005628;28;20125;-85
2023/05/27 04:21:59;;;;;;;12.35;8.25;;;;;;;;;;5003339;28;20093;-81
2023/05/27 04:24:24;;;;;;;12.27;7.80;;;;;;;;;;5001906;28;20038;-84
2023/05/27 04:26:50;;;;;;;16.45;8.05;;;;;;;;;;5008168;28;20030;-83
2023/05/27 04:29:15;;;;;;;19.25;8.35;;;;;;;;;;5004162;28;20096;-82
2023/05/27 04:31:41;;;;;;;12.50;8.15;;;;;;;;;;5005351;28;20040;-83
2023/05/27 04:34:07;;;;;;;13.45;7.85;;;;;;;;;;4995962;28;20418;-80
2023/05/27 04:36:34;;;;;;;14.23;8.13;;;;;;;;;;5002558;28;22041;-84
2023/05/27 04:39:01;;;;;;;13.85;8.32;;;;;;;;;;5008073;28;20026;-83
2023/05/27 04:41:28;;;;;;;14.00;8.50;;;;;;;;;;5005216;28;20084;-82
2023/05/27 04:43:56;;;;;;;17.85;8.98;;;;;;;;;;4998884;28;20128;-82
2023/05/27 04:46:23;;;;;;;13.18;8.25;;;;;;;;;;4995006;28;20050;-84
2023/05/27 04:48:50;;;;;;;17.10;8.10;;;;;;;;;;5005046;28;20031;-84
2023/05/27 04:51:17;;;;;;;15.23;8.68;;;;;;;;;;5000629;28;20034;-84
2023/05/27 04:53:43;;;;;;;16.40;8.73;;;;;;;;;;4988541;28;20118;-84
2023/05/27 04:56:08;;;;;;;17.48;8.48;;;;;;;;;;5001540;28;20077;-82
2023/05/27 04:58:34;;;;;;;12.75;8.20;;;;;;;;;;5001588;28;20053;-83
2023/05/27 05:00:59;;;;;;;12.25;7.82;;;;;;;;;;5002357;28;20061;-82
2023/05/27 05:03:36;;;;;;;15.88;8.35;;;;;;;;;;4985255;28;20066;-83
2023/05/27 05:06:03;;;;;;;18.65;8.60;;;;;;;;;;4999495;28;20026;-83
2023/05/27 05:08:29;;;;;;;13.13;7.50;;;;;;;;;;5004645;28;20456;-82
2023/05/27 05:10:54;;;;;;;14.73;7.80;;;;;;;;;;4998067;28;20039;-82
2023/05/27 05:13:20;;;;;;;13.65;7.65;;;;;;;;;;4994602;28;20042;-83
2023/05/27 05:15:45;;;;;;;11.25;7.55;;;;;;;;;;5001123;28;20034;-83
2023/05/27 05:18:11;;;;;;;12.70;7.78;;;;;;;;;;4996118;28;20091;-82
2023/05/27 05:20:36;;;;;;;13.48;7.88;;;;;;;;;;5001418;28;20077;-84
2023/05/27 05:23:01;;;;;;;9.95;6.10;;;;;;;;;;5000820;28;20034;-84
2023/05/27 05:25:27;;;;;;;11.10;7.70;;;;;;;;;;5000307;28;20513;-84
2023/05/27 05:27:53;;;;;;;15.63;8.20;;;;;;;;;;5002172;28;20034;-79
2023/05/27 05:30:18;;;;;;;12.13;6.32;;;;;;;;;;5001732;28;20026;-82
2023/05/27 05:32:43;;;;;;;15.77;7.75;;;;;;;;;;4998923;28;20030;-82
2023/05/27 05:35:09;;;;;;;14.82;8.18;;;;;;;;;;5001720;28;20038;-82
2023/05/27 05:37:34;;;;;;;14.30;7.60;;;;;;;;;;5001440;28;20034;-82
2023/05/27 05:39:59;;;;;;;16.17;8.00;;;;;;;;;;4994531;28;20094;-82
2023/05/27 05:42:25;;;;;;;18.60;7.95;;;;;;;;;;5002917;28;20100;-79
2023/05/27 05:44:52;;;;;;;19.60;8.43;;;;;;;;;;4999983;28;20134;-80
2023/05/27 05:47:17;;;;;;;12.95;7.70;;;;;;;;;;4996138;28;20128;-80
2023/05/27 05:49:42;;;;;;;14.73;7.38;;;;;;;;;;4999807;28;20058;-81
2023/05/27 05:52:08;;;;;;;15.20;7.50;;;;;;;;;;4999489;28;20121;-82
2023/05/27 05:54:33;;;;;;;20.95;7.82;;;;;;;;;;4998932;28;20554;-82
2023/05/27 05:57:00;;;;;;;20.42;8.18;;;;;;;;;;5002055;28;20041;-81
2023/05/27 05:59:26;;;;;;;14.15;8.23;;;;;;;;;;5001553;28;20043;-83
2023/05/27 06:01:51;;;;;;;15.02;7.03;;;;;;;;;;4996671;28;20125;-79
2023/05/27 06:04:17;;;;;;;12.32;7.60;;;;;;;;;;4995623;28;20042;-79
2023/05/27 06:06:42;;;;;;;11.02;7.22;;;;;;;;;;4998857;28;20049;-80
2023/05/27 06:09:07;;;;;;;14.75;7.40;;;;;;;;;;5004514;28;20017;-82
2023/05/27 06:11:33;;;;;;;12.02;7.30;;;;;;;;;;5011745;28;20026;-83
2023/05/27 06:13:58;;;;;;;14.93;7.38;;;;;;;;;;5005831;28;20030;-82
2023/05/27 06:16:24;;;;;;;15.45;7.97;;;;;;;;;;5003981;28;20038;-80
2023/05/27 06:18:49;;;;;;;15.85;7.95;;;;;;;;;;5004060;28;20034;-81
2023/05/27 06:21:14;;;;;;;11.70;7.18;;;;;;;;;;4999051;28;20090;-82
2023/05/27 06:23:40;;;;;;;16.63;8.10;;;;;;;;;;4999122;28;20033;-83
2023/05/27 06:26:05;;;;;;;11.55;6.78;;;;;;;;;;4995963;28;20034;-83
2023/05/27 06:28:30;;;;;;;14.93;6.70;;;;;;;;;;4997563;28;20053;-81
2023/05/27 06:30:56;;;;;;;12.02;7.30;;;;;;;;;;4998284;28;20045;-81
2023/05/27 06:33:21;;;;;;;14.10;7.70;;;;;;;;;;4997723;28;20142;-82
2023/05/27 06:35:46;;;;;;;10.77;6.70;;;;;;;;;;5001173;28;20044;-80
2023/05/27 06:38:12;;;;;;;10.32;7.47;;;;;;;;;;4998850;28;20030;-83
2023/05/27 06:40:37;;;;;;;10.63;6.93;;;;;;;;;;5000991;28;20094;-81
2023/05/27 06:43:03;;;;;;;13.48;7.10;;;;;;;;;;4999856;28;20038;-82
2023/05/27 06:45:28;;;;;;;12.02;7.75;;;;;;;;;;5000513;28;20061;-79
2023/05/27 06:47:53;;;;;;;9.13;6.88;;;;;;;;;;5002321;28;20511;-80
2023/05/27 06:50:19;;;;;;;12.27;6.97;;;;;;;;;;4996388;28;20027;-83
2023/05/27 06:52:44;;;;;;;11.32;7.40;;;;;;;;;;4999853;28;20093;-83
2023/05/27 06:55:09;;;;;;;19.50;8.45;;;;;;;;;;4996412;28;20066;-82
2023/05/27 06:57:35;;;;;;;10.43;7.38;;;;;;;;;;4993349;28;20117;-81
2023/05/27 07:00:00;;;;;;;12.68;6.88;;;;;;;;;;4996179;28;20090;-81
2023/05/27 07:02:25;;;;;;;13.38;7.75;;;;;;;;;;5000879;28;20038;-82
2023/05/27 07:04:53;;;;;;;13.88;6.88;;;;;;;;;;5000139;28;20397;-83
2023/05/27 07:07:19;;;;;;;14.82;7.50;;;;;;;;;;5000016;28;20034;-79
2023/05/27 07:09:44;;;;;;;11.57;7.95;;;;;;;;;;4998879;28;20548;-82
2023/05/27 07:12:10;;;;;;;11.30;8.27;;;;;;;;;;4999029;28;20089;-81
2023/05/27 07:14:35;;;;;;;13.55;7.47;;;;;;;;;;4999799;28;20074;-82
2023/05/27 07:17:01;;;;;;;18.73;7.25;;;;;;;;;;4997408;28;20057;-81
2023/05/27 07:19:26;;;;;;;20.95;8.57;;;;;;;;;;4997895;28;20108;-82
2023/05/27 07:21:51;;;;;;;14.75;7.20;;;;;;;;;;4998188;28;20045;-79
2023/05/27 07:24:17;;;;;;;10.23;6.47;;;;;;;;;;4997961;28;20070;-83
2023/05/27 07:26:42;;;;;;;12.82;7.85;;;;;;;;;;4997974;28;20034;-82
2023/05/27 07:29:08;;;;;;;15.18;8.57;;;;;;;;;;4994832;28;20101;-81
2023/05/27 07:31:34;;;;;;;12.50;7.18;;;;;;;;;;4996091;28;20044;-80
2023/05/27 07:33:59;;;;;;;13.15;7.22;;;;;;;;;;4996381;28;20109;-81
2023/05/27 07:36:24;;;;;;;12.35;6.60;;;;;;;;;;4995036;28;20042;-82
2023/05/27 07:38:50;;;;;;;11.40;7.22;;;;;;;;;;4997844;28;20094;-79
2023/05/27 07:41:15;;;;;;;14.43;7.47;;;;;;;;;;5001671;28;20058;-82
2023/05/27 07:43:41;;;;;;;13.35;6.85;;;;;;;;;;4993164;28;20367;-81
2023/05/27 07:46:06;;;;;;;12.25;7.10;;;;;;;;;;4994676;28;20045;-81
2023/05/27 07:48:31;;;;;;;10.90;6.68;;;;;;;;;;4996557;28;20034;-81
2023/05/27 07:50:57;;;;;;;17.98;7.72;;;;;;;;;;4996731;28;20034;-81
2023/05/27 07:53:23;;;;;;;9.98;6.50;;;;;;;;;;4996372;28;20104;-82
2023/05/27 07:55:48;;;;;;;11.35;6.20;;;;;;;;;;4996107;28;20102;-83
2023/05/27 07:58:13;;;;;;;12.50;6.53;;;;;;;;;;4995765;28;20517;-82
2023/05/27 08:00:39;;;;;;;14.30;6.32;;;;;;;;;;4993058;28;20093;-81
2023/05/27 08:03:04;;;;;;;15.88;7.40;;;;;;;;;;4997780;28;20130;-81
2023/05/27 08:05:30;;;;;;;9.77;6.35;;;;;;;;;;4999731;28;20049;-84
2023/05/27 08:07:58;;;;;;;13.63;6.78;;;;;;;;;;4998992;28;20034;-81
2023/05/27 08:10:24;;;;;;;12.02;6.68;;;;;;;;;;4999470;28;20049;-82
2023/05/27 08:12:50;;;;;;;12.38;6.00;;;;;;;;;;4995171;28;20478;-82
2023/05/27 08:15:15;;;;;;;15.05;6.28;;;;;;;;;;5003807;28;20022;-83
2023/05/27 08:17:42;;;;;;;13.30;6.20;;;;;;;;;;4991255;28;20039;-83
2023/05/27 08:20:08;;;;;;;12.93;6.70;;;;;;;;;;4997253;28;20517;-83
2023/05/27 08:22:33;;;;;;;17.77;6.13;;;;;;;;;;4996899;28;20035;-82
2023/05/27 08:24:58;;;;;;;11.23;5.85;;;;;;;;;;4995226;28;20117;-81
2023/05/27 08:27:44;;;;;;;12.32;6.18;;;;;;;;;;4996352;28;20045;-82
2023/05/27 08:30:09;;;;;;;14.57;6.60;;;;;;;;;;4995018;28;20022;-81
2023/05/27 08:32:35;;;;;;;14.38;6.70;;;;;;;;;;4999461;28;20475;-81
2023/05/27 08:35:01;;;;;;;13.50;6.32;;;;;;;;;;4998229;28;20058;-82
2023/05/27 08:37:26;;;;;;;11.88;5.55;;;;;;;;;;4995964;28;20354;-81
2023/05/27 08:39:51;;;;;;;15.18;5.30;;;;;;;;;;4996086;28;20043;-81
2023/05/27 08:42:16;;;;;;;13.23;5.70;;;;;;;;;;4997031;28;20030;-81
2023/05/27 08:44:42;;;;;;;10.50;6.22;;;;;;;;;;4999093;28;20066;-81
2023/05/27 08:47:07;;;;;;;11.15;5.75;;;;;;;;;;5003481;28;20045;-80
2023/05/27 08:49:32;;;;;;;13.55;6.25;;;;;;;;;;4997325;28;20452;-82
2023/05/27 08:52:00;;;;;;;16.42;6.15;;;;;;;;;;5003009;28;20045;-82
2023/05/27 08:54:26;;;;;;;12.10;5.88;;;;;;;;;;5002019;28;20038;-82
2023/05/27 08:56:55;;;;;;;10.80;6.18;;;;;;;;;;5002554;28;20794;-82
2023/05/27 08:59:21;;;;;;;8.70;5.72;;;;;;;;;;5000549;28;20065;-81
2023/05/27 09:01:47;;;;;;;10.30;6.10;;;;;;;;;;5002477;28;20034;-83
2023/05/27 09:04:12;;;;;;;13.60;6.20;;;;;;;;;;5006387;28;20113;-81
2023/05/27 09:06:38;;;;;;;8.05;5.22;;;;;;;;;;5005795;28;20113;-82
2023/05/27 09:09:03;;;;;;;11.57;5.60;;;;;;;;;;5023640;23;20038;-79
2023/05/27 09:11:34;;;;;;;10.43;6.55;;;;;;;;;;4995427;28;20030;-79
2023/05/27 09:13:59;;;;;;;10.30;5.50;;;;;;;;;;4992816;28;20030;-79
2023/05/27 09:16:24;;;;;;;9.98;6.18;;;;;;;;;;4991388;28;20039;-79
2023/05/27 09:18:50;;;;;;;12.07;5.63;;;;;;;;;;4995009;28;20031;-79
2023/05/27 09:21:15;;;;;;;10.43;5.40;;;;;;;;;;4992430;28;20030;-78
2023/05/27 09:23:41;;;;;;;12.40;5.53;;;;;;;;;;4994342;28;20030;-79
2023/05/27 09:26:10;;;;;;;9.57;4.70;;;;;;;;;;4997011;28;20042;-78
2023/05/27 09:28:37;;;;;;;10.88;5.10;;;;;;;;;;4996517;28;20039;-78
2023/05/27 09:31:07;;;;;;;16.45;5.75;;;;;;;;;;4991436;28;20037;-77
2023/05/27 09:33:34;;;;;;;6.80;3.78;;;;;;;;;;4993791;28;20492;-78
2023/05/27 09:36:01;;;;;;;13.48;6.22;;;;;;;;;;4991316;28;20117;-79
2023/05/27 09:38:31;;;;;;;12.27;5.88;;;;;;;;;;4994711;28;20043;-79
2023/05/27 09:41:00;;;;;;;8.07;3.85;;;;;;;;;;4987984;28;20084;-78
2023/05/27 09:43:27;;;;;;;8.63;4.50;;;;;;;;;;4995776;28;20400;-79
2023/05/27 09:46:01;;;;;;;8.45;5.18;;;;;;;;;;4994143;28;20042;-79
2023/05/27 09:48:28;;;;;;;;;;;;;;;;;;4988198;28;20042;-80
2023/05/27 09:50:54;;;;;;;9.15;4.93;;;;;;;;;;4998971;28;19933;-79
2023/05/27 09:53:21;;;;;;;9.38;5.70;;;;;;;;;;4994588;28;20141;-78
2023/05/27 09:55:48;;;;;;;9.73;5.30;;;;;;;;;;4992932;28;20090;-79
2023/05/27 09:58:14;;;;;;;10.32;5.65;;;;;;;;;;4996218;28;20451;-79
2023/05/27 10:00:41;;;;;;;9.88;4.78;;;;;;;;;;4993024;28;20046;-79
2023/05/27 10:03:07;;;;;;;8.68;5.00;;;;;;;;;;4995149;28;20113;-79
2023/05/27 10:05:33;;;;;;;7.18;4.88;;;;;;;;;;4996039;28;20073;-79
2023/05/27 10:07:58;;;;;;;9.45;5.35;;;;;;;;;;5002656;28;20031;-80
2023/05/27 10:10:24;;;;;;;12.55;4.72;;;;;;;;;;4997163;28;20156;-79
2023/05/27 10:12:51;;;;;;;10.45;4.65;;;;;;;;;;4993933;28;20570;-78
2023/05/27 10:15:33;;;;;;;10.57;5.28;;;;;;;;;;4998253;28;20073;-80
2023/05/27 10:17:59;;;;;;;9.68;5.05;;;;;;;;;;5007950;28;20022;-78
2023/05/27 10:20:37;;;;;;;14.40;5.07;;;;;;;;;;4995791;28;20061;-79
2023/05/27 10:23:13;;;;;;;8.68;4.68;;;;;;;;;;4987663;28;20108;-79
2023/05/27 10:25:40;;;;;;;8.15;5.07;;;;;;;;;;4986995;28;20062;-79
2023/05/27 10:28:05;;;;;;;14.60;5.22;;;;;;;;;;4987868;28;20062;-79
2023/05/27 10:30:45;;;;;;;10.10;5.13;;;;;;;;;;4993403;28;20057;-79
2023/05/27 10:33:11;;;;;;;9.75;4.70;;;;;;;;;;4998018;28;20018;-79
2023/05/27 10:35:41;;;;;;;10.93;5.22;;;;;;;;;;4996866;28;20033;-79
2023/05/27 10:38:17;;;;;;;8.07;5.03;;;;;;;;;;4988064;28;20030;-79
2023/05/27 10:40:45;;;;;;;12.85;4.95;;;;;;;;;;4990427;28;20146;-78
2023/05/27 10:43:17;;;;;;;7.15;4.35;;;;;;;;;;4993085;28;20046;-79
2023/05/27 10:45:43;;;;;;;7.75;5.00;;;;;;;;;;4987487;28;20085;-79
2023/05/27 10:48:18;;;;;;;6.70;4.25;;;;;;;;;;4994329;28;20022;-79
2023/05/27 10:50:53;;;;;;;9.73;5.05;;;;;;;;;;4988861;28;20058;-79
2023/05/27 10:53:20;;;;;;;10.07;4.25;;;;;;;;;;5010589;28;20061;-79
2023/05/27 10:55:48;;;;;;;9.15;4.70;;;;;;;;;;5000370;28;20049;-79
2023/05/27 10:58:15;;;;;;;7.65;4.95;;;;;;;;;;5003644;28;20046;-79
2023/05/27 11:00:42;;;;;;;9.63;5.35;;;;;;;;;;4991994;28;20089;-78
2023/05/27 11:03:21;;;;;;;11.43;4.70;;;;;;;;;;4994054;28;20475;-78
2023/05/27 11:05:46;;;;;;;11.10;4.97;;;;;;;;;;4997731;28;20026;-78
2023/05/27 11:08:13;;;;;;;9.70;4.80;;;;;;;;;;4999441;28;20078;-77
2023/05/27 11:10:41;;;;;;;7.60;4.50;;;;;;;;;;5000507;28;20116;-78
2023/05/27 11:13:06;;;;;;;6.85;4.45;;;;;;;;;;5000359;28;20516;-77
2023/05/27 11:15:31;;;;;;;9.23;4.80;;;;;;;;;;4999360;28;20046;-77
2023/05/27 11:18:02;;;;;;;8.95;4.55;;;;;;;;;;4999143;28;20034;-77
2023/05/27 11:20:37;;;;;;;7.18;4.35;;;;;;;;;;4999700;28;20034;-77
2023/05/27 11:23:03;;;;;;;10.55;5.10;;;;;;;;;;4998912;28;20045;-77
2023/05/27 11:25:28;;;;;;;8.75;4.47;;;;;;;;;;4994007;28;20796;-77
2023/05/27 11:27:53;;;;;;;9.38;4.82;;;;;;;;;;4982958;28;20046;-78
2023/05/27 11:30:24;;;;;;;8.23;5.28;;;;;;;;;;4985976;28;20041;-78
2023/05/27 11:32:50;;;;;;;9.82;5.60;;;;;;;;;;4991709;28;20026;-78
2023/05/27 11:35:17;;;;;;;7.90;4.55;;;;;;;;;;4990539;28;20034;-79
2023/05/27 11:37:49;;;;;;;8.30;5.22;;;;;;;;;;5006039;28;20038;-78
2023/05/27 11:40:15;;;;;;;6.82;4.53;;;;;;;;;;4992258;28;20081;-78
2023/05/27 11:42:45;;;;;;;9.75;4.88;;;;;;;;;;4994968;28;20038;-78
2023/05/27 11:45:15;;;;;;;9.77;5.30;;;;;;;;;;5001249;28;20045;-79
2023/05/27 11:47:42;;;;;;;9.20;4.50;;;;;;;;;;4997770;28;20097;-78
2023/05/27 11:50:08;;;;;;;10.55;4.90;;;;;;;;;;4994332;28;20129;-78
2023/05/27 11:52:33;;;;;;;8.70;4.57;;;;;;;;;;4994501;28;20125;-78
2023/05/27 11:54:59;;;;;;;10.82;5.30;;;;;;;;;;4995889;28;20433;-77
2023/05/27 11:57:24;;;;;;;12.95;4.60;;;;;;;;;;4994128;28;20137;-78
2023/05/27 11:59:50;;;;;;;8.60;4.80;;;;;;;;;;4998031;28;20022;-77
2023/05/27 12:02:15;;;;;;;5.78;4.20;;;;;;;;;;5008239;28;20549;-78
2023/05/27 12:04:41;;;;;;;12.00;5.65;;;;;;;;;;4989247;28;20078;-78
2023/05/27 12:07:06;;;;;;;12.20;4.60;;;;;;;;;;5008954;28;20037;-79
2023/05/27 12:09:32;;;;;;;17.38;4.97;;;;;;;;;;4989304;28;20039;-78
2023/05/27 12:11:57;;;;;;;9.30;5.65;;;;;;;;;;4991527;28;20030;-79
2023/05/27 12:14:22;;;;;;;8.07;4.63;;;;;;;;;;4991513;28;20048;-77
2023/05/27 12:16:48;;;;;;;8.05;5.10;;;;;;;;;;4989570;28;20041;-78
2023/05/27 12:19:13;;;;;;;14.63;4.93;;;;;;;;;;4991157;28;20052;-78
2023/05/27 12:21:39;;;;;;;14.27;4.88;;;;;;;;;;4995476;28;20035;-77
2023/05/27 12:24:06;;;;;;;9.02;4.80;;;;;;;;;;4995766;28;20514;-77
2023/05/27 12:26:31;;;;;;;8.93;4.75;;;;;;;;;;4995601;28;20027;-78
2023/05/27 12:28:56;;;;;;;12.25;4.78;;;;;;;;;;4998674;28;20038;-78
2023/05/27 12:31:22;;;;;;;12.57;4.65;;;;;;;;;;4995767;28;20564;-78
2023/05/27 12:33:48;;;;;;;9.02;4.53;;;;;;;;;;4993437;28;20042;-78
2023/05/27 12:36:13;;;;;;;8.45;4.45;;;;;;;;;;4995416;28;20048;-78
2023/05/27 12:38:38;;;;;;;9.90;5.10;;;;;;;;;;4992609;28;20042;-78
2023/05/27 12:41:04;;;;;;;7.85;4.60;;;;;;;;;;4995130;28;20093;-78
2023/05/27 12:43:29;;;;;;;14.52;4.88;;;;;;;;;;4998073;28;20054;-79
2023/05/27 12:45:54;;;;;;;7.68;5.18;;;;;;;;;;4994447;28;20069;-78
2023/05/27 12:48:21;;;;;;;9.63;5.22;;;;;;;;;;4994622;28;20042;-77
2023/05/27 12:50:46;;;;;;;10.90;5.40;;;;;;;;;;4987971;28;20019;-79
2023/05/27 12:53:11;;;;;;;5.35;3.92;;;;;;;;;;4988151;28;20072;-78
2023/05/27 12:55:37;;;;;;;7.38;4.40;;;;;;;;;;4990401;28;20062;-78
2023/05/27 12:58:03;;;;;;;9.30;4.50;;;;;;;;;;4989706;28;20050;-77
2023/05/27 13:00:28;;;;;;;6.93;4.38;;;;;;;;;;4992773;28;20034;-79
2023/05/27 13:02:54;;;;;;;8.45;5.00;;;;;;;;;;4994979;28;20055;-78
2023/05/27 13:05:19;;;;;;;8.45;4.90;;;;;;;;;;4991884;28;20066;-78
2023/05/27 13:07:59;;;;;;;8.98;4.38;;;;;;;;;;4992833;28;20077;-78
2023/05/27 13:10:25;;;;;;;10.18;4.85;;;;;;;;;;4988846;28;20077;-78
2023/05/27 13:12:50;;;;;;;7.07;4.47;;;;;;;;;;4988993;28;20129;-78
2023/05/27 13:15:16;;;;;;;9.88;4.50;;;;;;;;;;5003869;28;20029;-78
2023/05/27 13:17:45;;;;;;;10.20;4.85;;;;;;;;;;4993765;28;20034;-79
2023/05/27 13:20:12;;;;;;;13.25;4.82;;;;;;;;;;4995277;28;20434;-78
2023/05/27 13:22:37;;;;;;;7.22;4.35;;;;;;;;;;5007352;28;20045;-77
2023/05/27 13:25:04;;;;;;;7.82;4.93;;;;;;;;;;4994229;28;20416;-78
2023/05/27 13:27:30;;;;;;;8.40;4.50;;;;;;;;;;4993548;28;20058;-79
2023/05/27 13:29:56;;;;;;;5.45;4.28;;;;;;;;;;4993445;28;20045;-78
2023/05/27 13:32:21;;;;;;;9.63;5.15;;;;;;;;;;4987922;28;20043;-78
2023/05/27 13:34:47;;;;;;;8.05;4.80;;;;;;;;;;4994485;28;20046;-79
2023/05/27 13:37:12;;;;;;;7.38;4.60;;;;;;;;;;4994599;28;20525;-78
2023/05/27 13:39:42;;;;;;;10.63;5.03;;;;;;;;;;4993015;28;20500;-77
2023/05/27 13:42:10;;;;;;;6.43;4.22;;;;;;;;;;4982112;28;20049;-78
2023/05/27 13:44:36;;;;;;;11.05;5.30;;;;;;;;;;4985210;28;20125;-78
2023/05/27 13:47:02;;;;;;;12.02;5.05;;;;;;;;;;4992817;28;20076;-77
2023/05/27 13:49:27;;;;;;;9.45;4.88;;;;;;;;;;5001998;28;20521;-77
2023/05/27 13:51:52;;;;;;;6.95;4.05;;;;;;;;;;4990920;28;20237;-78
2023/05/27 13:54:17;;;;;;;10.55;4.78;;;;;;;;;;4989555;28;20041;-78
2023/05/27 13:56:43;;;;;;;7.00;4.35;;;;;;;;;;4992787;28;20033;-78
2023/05/27 13:59:09;;;;;;;6.85;4.70;;;;;;;;;;4991291;28;20534;-80
2023/05/27 14:01:35;;;;;;;12.05;4.57;;;;;;;;;;4997063;28;20492;-78
2023/05/27 14:04:00;;;;;;;9.52;5.07;;;;;;;;;;4992083;28;20069;-77
2023/05/27 14:06:25;;;;;;;6.88;4.13;;;;;;;;;;4992501;28;20496;-78
2023/05/27 14:08:51;;;;;;;12.00;4.70;;;;;;;;;;4994900;28;20082;-78
2023/05/27 14:11:17;;;;;;;11.45;4.28;;;;;;;;;;5011944;28;20532;-78
2023/05/27 14:13:42;;;;;;;9.52;4.80;;;;;;;;;;5003688;28;20035;-78
2023/05/27 14:16:08;;;;;;;6.57;4.47;;;;;;;;;;4997598;28;20092;-78
2023/05/27 14:18:34;;;;;;;9.13;5.22;;;;;;;;;;5002490;28;20114;-78
2023/05/27 14:20:59;;;;;;;9.65;4.85;;;;;;;;;;4993565;28;20049;-77
2023/05/27 14:23:24;;;;;;;9.43;5.05;;;;;;;;;;4984535;28;20035;-78
2023/05/27 14:25:49;;;;;;;9.32;5.00;;;;;;;;;;4993338;28;20596;-78
2023/05/27 14:28:15;;;;;;;7.55;4.50;;;;;;;;;;4993174;28;20038;-78